sensor_id;sensor_type;location;lat;lon;timestamp;P1;durP1;ratioP1;P2;durP2;ratioP2
11305;SDS011;5708;50.660;6.778;2023-03-31T00:01:56;7.22;;;1.85;;
11305;SDS011;5708;50.660;6.778;2023-03-31T00:04:21;7.75;;;1.60;;
11305;SDS011;5708;50.660;6.778;2023-03-31T00:06:48;8.13;;;1.10;;
11305;SDS011;5708;50.660;6.778;2023-03-31T00:09:14;5.80;;;1.40;;
11305;SDS011;5708;50.660;6.778;2023-03-31T00:11:46;4.80;;;1.33;;
11305;SDS011;5708;50.660;6.778;2023-03-31T00:14:11;6.00;;;1.05;;
11305;SDS011;5708;50.660;6.778;2023-03-31T00:16:37;7.00;;;1.77;;
11305;SDS011;5708;50.660;6.778;2023-03-31T00:19:03;5.65;;;1.42;;
11305;SDS011;5708;50.660;6.778;2023-03-31T00:21:29;5.25;;;1.10;;
11305;SDS011;5708;50.660;6.778;2023-03-31T00:24:06;8.77;;;1.15;;
11305;SDS011;5708;50.660;6.778;2023-03-31T00:26:32;9.90;;;1.20;;
11305;SDS011;5708;50.660;6.778;2023-03-31T00:28:58;7.00;;;1.13;;
11305;SDS011;5708;50.660;6.778;2023-03-31T00:31:24;7.45;;;1.00;;
11305;SDS011;5708;50.660;6.778;2023-03-31T00:33:51;6.60;;;1.20;;
11305;SDS011;5708;50.660;6.778;2023-03-31T00:36:16;4.57;;;0.90;;
11305;SDS011;5708;50.660;6.778;2023-03-31T00:39:00;7.03;;;1.05;;
11305;SDS011;5708;50.660;6.778;2023-03-31T00:41:36;7.80;;;1.13;;
11305;SDS011;5708;50.660;6.778;2023-03-31T00:44:23;8.50;;;1.58;;
11305;SDS011;5708;50.660;6.778;2023-03-31T00:46:52;8.27;;;1.73;;
11305;SDS011;5708;50.660;6.778;2023-03-31T00:49:24;15.70;;;2.15;;
11305;SDS011;5708;50.660;6.778;2023-03-31T00:51:50;12.88;;;1.80;;
11305;SDS011;5708;50.660;6.778;2023-03-31T00:54:16;13.07;;;1.88;;
11305;SDS011;5708;50.660;6.778;2023-03-31T00:56:43;14.80;;;2.13;;
11305;SDS011;5708;50.660;6.778;2023-03-31T00:59:12;12.55;;;1.80;;
11305;SDS011;5708;50.660;6.778;2023-03-31T01:01:38;14.02;;;2.38;;
11305;SDS011;5708;50.660;6.778;2023-03-31T01:04:06;15.70;;;2.70;;
11305;SDS011;5708;50.660;6.778;2023-03-31T01:06:33;14.05;;;2.05;;
11305;SDS011;5708;50.660;6.778;2023-03-31T01:09:00;18.30;;;2.65;;
11305;SDS011;5708;50.660;6.778;2023-03-31T01:11:29;12.73;;;1.95;;
11305;SDS011;5708;50.660;6.778;2023-03-31T01:13:55;18.83;;;3.00;;
11305;SDS011;5708;50.660;6.778;2023-03-31T01:16:21;9.68;;;1.80;;
11305;SDS011;5708;50.660;6.778;2023-03-31T01:18:46;12.20;;;2.20;;
11305;SDS011;5708;50.660;6.778;2023-03-31T01:42:03;13.45;;;2.20;;
11305;SDS011;5708;50.660;6.778;2023-03-31T01:47:01;5.17;;;1.40;;
11305;SDS011;5708;50.660;6.778;2023-03-31T01:49:39;11.20;;;1.95;;
11305;SDS011;5708;50.660;6.778;2023-03-31T01:52:27;7.05;;;1.60;;
11305;SDS011;5708;50.660;6.778;2023-03-31T01:55:05;7.80;;;1.60;;
11305;SDS011;5708;50.660;6.778;2023-03-31T02:02:30;7.07;;;1.30;;
11305;SDS011;5708;50.660;6.778;2023-03-31T02:05:00;7.95;;;1.40;;
11305;SDS011;5708;50.660;6.778;2023-03-31T02:07:31;10.20;;;1.77;;
11305;SDS011;5708;50.660;6.778;2023-03-31T02:09:59;5.38;;;1.20;;
11305;SDS011;5708;50.660;6.778;2023-03-31T02:12:25;7.85;;;1.35;;
11305;SDS011;5708;50.660;6.778;2023-03-31T02:14:53;6.00;;;1.38;;
11305;SDS011;5708;50.660;6.778;2023-03-31T02:17:21;5.85;;;1.48;;
11305;SDS011;5708;50.660;6.778;2023-03-31T02:19:54;7.00;;;1.25;;
11305;SDS011;5708;50.660;6.778;2023-03-31T02:22:20;8.20;;;1.20;;
11305;SDS011;5708;50.660;6.778;2023-03-31T02:24:47;10.00;;;1.88;;
11305;SDS011;5708;50.660;6.778;2023-03-31T02:27:16;8.48;;;1.75;;
11305;SDS011;5708;50.660;6.778;2023-03-31T02:29:43;8.07;;;1.42;;
11305;SDS011;5708;50.660;6.778;2023-03-31T02:32:10;8.02;;;1.50;;
11305;SDS011;5708;50.660;6.778;2023-03-31T02:34:37;6.40;;;1.17;;
11305;SDS011;5708;50.660;6.778;2023-03-31T02:37:02;7.32;;;1.10;;
11305;SDS011;5708;50.660;6.778;2023-03-31T02:39:29;6.47;;;1.20;;
11305;SDS011;5708;50.660;6.778;2023-03-31T02:41:56;9.70;;;1.88;;
11305;SDS011;5708;50.660;6.778;2023-03-31T02:44:22;6.40;;;1.38;;
11305;SDS011;5708;50.660;6.778;2023-03-31T02:46:47;6.57;;;1.50;;
11305;SDS011;5708;50.660;6.778;2023-03-31T02:49:14;8.48;;;1.73;;
11305;SDS011;5708;50.660;6.778;2023-03-31T02:51:46;6.10;;;1.15;;
11305;SDS011;5708;50.660;6.778;2023-03-31T03:07:07;5.60;;;1.30;;
11305;SDS011;5708;50.660;6.778;2023-03-31T03:10:12;6.68;;;1.23;;
11305;SDS011;5708;50.660;6.778;2023-03-31T03:15:07;7.03;;;1.27;;
11305;SDS011;5708;50.660;6.778;2023-03-31T03:17:43;7.97;;;1.27;;
11305;SDS011;5708;50.660;6.778;2023-03-31T03:20:10;3.85;;;1.13;;
11305;SDS011;5708;50.660;6.778;2023-03-31T03:22:36;6.88;;;1.17;;
11305;SDS011;5708;50.660;6.778;2023-03-31T03:25:02;6.10;;;1.05;;
11305;SDS011;5708;50.660;6.778;2023-03-31T03:27:28;4.20;;;1.17;;
11305;SDS011;5708;50.660;6.778;2023-03-31T03:29:54;4.60;;;0.90;;
11305;SDS011;5708;50.660;6.778;2023-03-31T03:32:19;5.50;;;1.30;;
11305;SDS011;5708;50.660;6.778;2023-03-31T03:34:44;7.55;;;1.30;;
11305;SDS011;5708;50.660;6.778;2023-03-31T03:37:09;4.80;;;0.90;;
11305;SDS011;5708;50.660;6.778;2023-03-31T03:39:35;6.72;;;1.00;;
11305;SDS011;5708;50.660;6.778;2023-03-31T03:42:00;4.37;;;0.90;;
11305;SDS011;5708;50.660;6.778;2023-03-31T03:44:25;5.83;;;1.20;;
11305;SDS011;5708;50.660;6.778;2023-03-31T03:46:51;4.60;;;1.08;;
11305;SDS011;5708;50.660;6.778;2023-03-31T03:49:16;6.80;;;1.00;;
11305;SDS011;5708;50.660;6.778;2023-03-31T03:51:41;5.63;;;1.20;;
11305;SDS011;5708;50.660;6.778;2023-03-31T03:54:06;4.67;;;0.87;;
11305;SDS011;5708;50.660;6.778;2023-03-31T03:56:32;5.50;;;1.00;;
11305;SDS011;5708;50.660;6.778;2023-03-31T03:58:57;5.83;;;1.43;;
11305;SDS011;5708;50.660;6.778;2023-03-31T04:01:22;5.85;;;0.90;;
11305;SDS011;5708;50.660;6.778;2023-03-31T04:03:47;5.57;;;1.00;;
11305;SDS011;5708;50.660;6.778;2023-03-31T04:06:13;6.32;;;1.20;;
11305;SDS011;5708;50.660;6.778;2023-03-31T04:08:38;6.50;;;1.27;;
11305;SDS011;5708;50.660;6.778;2023-03-31T04:11:04;5.47;;;0.80;;
11305;SDS011;5708;50.660;6.778;2023-03-31T04:13:33;4.90;;;0.98;;
11305;SDS011;5708;50.660;6.778;2023-03-31T04:15:59;4.50;;;1.37;;
11305;SDS011;5708;50.660;6.778;2023-03-31T04:18:24;5.72;;;0.95;;
11305;SDS011;5708;50.660;6.778;2023-03-31T04:20:49;5.60;;;0.90;;
11305;SDS011;5708;50.660;6.778;2023-03-31T04:23:18;8.60;;;1.17;;
11305;SDS011;5708;50.660;6.778;2023-03-31T04:25:45;6.03;;;1.20;;
11305;SDS011;5708;50.660;6.778;2023-03-31T04:28:10;3.75;;;0.82;;
11305;SDS011;5708;50.660;6.778;2023-03-31T04:30:38;6.70;;;1.13;;
11305;SDS011;5708;50.660;6.778;2023-03-31T04:33:04;5.30;;;1.40;;
11305;SDS011;5708;50.660;6.778;2023-03-31T04:35:30;4.53;;;1.00;;
11305;SDS011;5708;50.660;6.778;2023-03-31T04:38:13;3.60;;;1.20;;
11305;SDS011;5708;50.660;6.778;2023-03-31T04:40:42;4.55;;;1.10;;
11305;SDS011;5708;50.660;6.778;2023-03-31T04:43:07;4.00;;;0.90;;
11305;SDS011;5708;50.660;6.778;2023-03-31T04:45:33;4.15;;;1.10;;
11305;SDS011;5708;50.660;6.778;2023-03-31T04:47:58;4.53;;;0.90;;
11305;SDS011;5708;50.660;6.778;2023-03-31T04:50:23;2.33;;;0.87;;
11305;SDS011;5708;50.660;6.778;2023-03-31T04:52:48;2.63;;;0.80;;
11305;SDS011;5708;50.660;6.778;2023-03-31T04:55:13;4.50;;;0.80;;
11305;SDS011;5708;50.660;6.778;2023-03-31T04:57:39;4.50;;;0.82;;
11305;SDS011;5708;50.660;6.778;2023-03-31T05:00:04;5.00;;;0.90;;
11305;SDS011;5708;50.660;6.778;2023-03-31T05:02:33;2.17;;;0.80;;
11305;SDS011;5708;50.660;6.778;2023-03-31T05:04:58;3.28;;;0.70;;
11305;SDS011;5708;50.660;6.778;2023-03-31T05:07:23;1.73;;;0.60;;
11305;SDS011;5708;50.660;6.778;2023-03-31T05:09:48;3.13;;;0.63;;
11305;SDS011;5708;50.660;6.778;2023-03-31T05:12:14;2.92;;;0.70;;
11305;SDS011;5708;50.660;6.778;2023-03-31T05:14:39;3.43;;;0.80;;
11305;SDS011;5708;50.660;6.778;2023-03-31T05:17:04;3.42;;;0.68;;
11305;SDS011;5708;50.660;6.778;2023-03-31T05:19:30;3.55;;;0.85;;
11305;SDS011;5708;50.660;6.778;2023-03-31T05:21:55;3.20;;;0.65;;
11305;SDS011;5708;50.660;6.778;2023-03-31T05:24:20;2.57;;;0.53;;
11305;SDS011;5708;50.660;6.778;2023-03-31T05:26:46;3.60;;;0.55;;
11305;SDS011;5708;50.660;6.778;2023-03-31T05:29:16;5.22;;;1.15;;
11305;SDS011;5708;50.660;6.778;2023-03-31T05:31:41;2.97;;;0.68;;
11305;SDS011;5708;50.660;6.778;2023-03-31T05:34:07;2.08;;;0.52;;
11305;SDS011;5708;50.660;6.778;2023-03-31T05:36:32;2.47;;;0.50;;
11305;SDS011;5708;50.660;6.778;2023-03-31T05:38:57;1.27;;;0.50;;
11305;SDS011;5708;50.660;6.778;2023-03-31T05:41:23;2.15;;;0.35;;
11305;SDS011;5708;50.660;6.778;2023-03-31T05:43:48;0.93;;;0.30;;
11305;SDS011;5708;50.660;6.778;2023-03-31T05:46:13;1.25;;;0.40;;
11305;SDS011;5708;50.660;6.778;2023-03-31T05:48:38;1.25;;;0.50;;
11305;SDS011;5708;50.660;6.778;2023-03-31T05:51:04;0.73;;;0.30;;
11305;SDS011;5708;50.660;6.778;2023-03-31T05:53:29;0.60;;;0.28;;
11305;SDS011;5708;50.660;6.778;2023-03-31T05:55:59;1.27;;;0.40;;
11305;SDS011;5708;50.660;6.778;2023-03-31T05:58:25;0.65;;;0.30;;
11305;SDS011;5708;50.660;6.778;2023-03-31T06:00:59;3.38;;;0.40;;
11305;SDS011;5708;50.660;6.778;2023-03-31T06:03:25;2.25;;;0.50;;
11305;SDS011;5708;50.660;6.778;2023-03-31T06:05:50;2.25;;;0.40;;
11305;SDS011;5708;50.660;6.778;2023-03-31T06:08:18;1.65;;;0.30;;
11305;SDS011;5708;50.660;6.778;2023-03-31T06:10:43;0.88;;;0.28;;
11305;SDS011;5708;50.660;6.778;2023-03-31T06:13:08;1.77;;;0.40;;
11305;SDS011;5708;50.660;6.778;2023-03-31T06:15:33;1.60;;;0.40;;
11305;SDS011;5708;50.660;6.778;2023-03-31T06:17:58;1.03;;;0.40;;
11305;SDS011;5708;50.660;6.778;2023-03-31T06:20:24;1.55;;;0.40;;
11305;SDS011;5708;50.660;6.778;2023-03-31T06:22:49;0.55;;;0.47;;
11305;SDS011;5708;50.660;6.778;2023-03-31T06:25:14;2.27;;;0.50;;
11305;SDS011;5708;50.660;6.778;2023-03-31T06:27:40;0.70;;;0.30;;
11305;SDS011;5708;50.660;6.778;2023-03-31T06:30:05;1.02;;;0.50;;
11305;SDS011;5708;50.660;6.778;2023-03-31T06:32:31;2.60;;;0.45;;
11305;SDS011;5708;50.660;6.778;2023-03-31T06:34:56;1.40;;;0.60;;
11305;SDS011;5708;50.660;6.778;2023-03-31T06:37:21;1.40;;;0.30;;
11305;SDS011;5708;50.660;6.778;2023-03-31T06:39:46;0.30;;;0.30;;
11305;SDS011;5708;50.660;6.778;2023-03-31T06:42:13;1.40;;;0.50;;
11305;SDS011;5708;50.660;6.778;2023-03-31T06:44:39;1.08;;;0.43;;
11305;SDS011;5708;50.660;6.778;2023-03-31T06:47:04;2.65;;;0.40;;
11305;SDS011;5708;50.660;6.778;2023-03-31T06:49:29;1.77;;;0.40;;
11305;SDS011;5708;50.660;6.778;2023-03-31T06:51:54;2.87;;;0.50;;
11305;SDS011;5708;50.660;6.778;2023-03-31T06:54:20;0.47;;;0.40;;
11305;SDS011;5708;50.660;6.778;2023-03-31T06:56:45;2.20;;;0.57;;
11305;SDS011;5708;50.660;6.778;2023-03-31T06:59:10;0.80;;;0.47;;
11305;SDS011;5708;50.660;6.778;2023-03-31T07:01:35;1.15;;;0.40;;
11305;SDS011;5708;50.660;6.778;2023-03-31T07:04:03;1.23;;;0.50;;
11305;SDS011;5708;50.660;6.778;2023-03-31T07:06:28;2.13;;;0.45;;
11305;SDS011;5708;50.660;6.778;2023-03-31T07:08:54;1.77;;;0.50;;
11305;SDS011;5708;50.660;6.778;2023-03-31T07:11:19;3.08;;;0.65;;
11305;SDS011;5708;50.660;6.778;2023-03-31T07:13:44;2.28;;;0.70;;
11305;SDS011;5708;50.660;6.778;2023-03-31T07:16:10;1.80;;;0.68;;
11305;SDS011;5708;50.660;6.778;2023-03-31T07:18:38;2.63;;;0.70;;
11305;SDS011;5708;50.660;6.778;2023-03-31T07:21:06;3.58;;;0.65;;
11305;SDS011;5708;50.660;6.778;2023-03-31T07:23:32;3.53;;;0.70;;
11305;SDS011;5708;50.660;6.778;2023-03-31T07:25:57;4.25;;;0.80;;
11305;SDS011;5708;50.660;6.778;2023-03-31T07:28:26;3.80;;;0.95;;
11305;SDS011;5708;50.660;6.778;2023-03-31T07:30:51;3.47;;;1.13;;
11305;SDS011;5708;50.660;6.778;2023-03-31T07:33:16;3.87;;;1.13;;
11305;SDS011;5708;50.660;6.778;2023-03-31T07:35:42;4.72;;;1.35;;
11305;SDS011;5708;50.660;6.778;2023-03-31T07:38:10;4.18;;;1.35;;
11305;SDS011;5708;50.660;6.778;2023-03-31T07:40:35;5.13;;;1.27;;
11305;SDS011;5708;50.660;6.778;2023-03-31T07:43:00;5.67;;;1.70;;
11305;SDS011;5708;50.660;6.778;2023-03-31T07:45:26;10.15;;;2.00;;
11305;SDS011;5708;50.660;6.778;2023-03-31T07:47:51;6.70;;;1.50;;
11305;SDS011;5708;50.660;6.778;2023-03-31T07:50:17;7.07;;;1.80;;
11305;SDS011;5708;50.660;6.778;2023-03-31T07:52:42;9.30;;;2.42;;
11305;SDS011;5708;50.660;6.778;2023-03-31T07:55:08;9.55;;;2.45;;
11305;SDS011;5708;50.660;6.778;2023-03-31T07:57:33;6.50;;;1.35;;
11305;SDS011;5708;50.660;6.778;2023-03-31T07:59:59;3.33;;;1.08;;
11305;SDS011;5708;50.660;6.778;2023-03-31T08:02:24;8.02;;;1.88;;
11305;SDS011;5708;50.660;6.778;2023-03-31T08:04:49;6.60;;;1.40;;
11305;SDS011;5708;50.660;6.778;2023-03-31T08:07:15;5.18;;;1.17;;
11305;SDS011;5708;50.660;6.778;2023-03-31T08:09:42;7.25;;;1.35;;
11305;SDS011;5708;50.660;6.778;2023-03-31T08:12:07;5.55;;;1.30;;
11305;SDS011;5708;50.660;6.778;2023-03-31T08:14:32;6.13;;;1.15;;
11305;SDS011;5708;50.660;6.778;2023-03-31T08:16:58;7.10;;;1.90;;
11305;SDS011;5708;50.660;6.778;2023-03-31T08:19:24;5.78;;;1.52;;
11305;SDS011;5708;50.660;6.778;2023-03-31T08:21:49;8.27;;;1.65;;
11305;SDS011;5708;50.660;6.778;2023-03-31T08:24:16;5.32;;;1.50;;
11305;SDS011;5708;50.660;6.778;2023-03-31T08:26:41;6.95;;;1.60;;
11305;SDS011;5708;50.660;6.778;2023-03-31T08:29:07;3.88;;;1.20;;
11305;SDS011;5708;50.660;6.778;2023-03-31T08:31:32;9.90;;;1.77;;
11305;SDS011;5708;50.660;6.778;2023-03-31T08:33:57;9.53;;;2.03;;
11305;SDS011;5708;50.660;6.778;2023-03-31T08:36:23;8.40;;;1.88;;
11305;SDS011;5708;50.660;6.778;2023-03-31T08:38:48;8.48;;;1.85;;
11305;SDS011;5708;50.660;6.778;2023-03-31T08:41:22;13.13;;;2.75;;
11305;SDS011;5708;50.660;6.778;2023-03-31T08:43:51;10.48;;;2.35;;
11305;SDS011;5708;50.660;6.778;2023-03-31T08:46:19;11.02;;;1.80;;
11305;SDS011;5708;50.660;6.778;2023-03-31T08:48:54;13.73;;;1.83;;
11305;SDS011;5708;50.660;6.778;2023-03-31T08:51:21;11.85;;;2.03;;
11305;SDS011;5708;50.660;6.778;2023-03-31T08:54:01;13.80;;;2.30;;
11305;SDS011;5708;50.660;6.778;2023-03-31T08:56:31;10.50;;;2.13;;
11305;SDS011;5708;50.660;6.778;2023-03-31T08:58:58;12.35;;;2.50;;
11305;SDS011;5708;50.660;6.778;2023-03-31T09:09:16;10.20;;;2.20;;
11305;SDS011;5708;50.660;6.778;2023-03-31T09:11:47;11.77;;;3.38;;
11305;SDS011;5708;50.660;6.778;2023-03-31T09:22:32;9.77;;;2.65;;
11305;SDS011;5708;50.660;6.778;2023-03-31T09:24:59;9.80;;;2.25;;
11305;SDS011;5708;50.660;6.778;2023-03-31T09:27:26;7.05;;;1.48;;
11305;SDS011;5708;50.660;6.778;2023-03-31T09:29:52;7.65;;;1.60;;
11305;SDS011;5708;50.660;6.778;2023-03-31T09:34:45;11.15;;;2.17;;
11305;SDS011;5708;50.660;6.778;2023-03-31T09:37:11;9.15;;;2.00;;
11305;SDS011;5708;50.660;6.778;2023-03-31T09:39:37;10.27;;;2.53;;
11305;SDS011;5708;50.660;6.778;2023-03-31T09:42:02;10.45;;;2.05;;
11305;SDS011;5708;50.660;6.778;2023-03-31T09:44:38;9.95;;;2.03;;
11305;SDS011;5708;50.660;6.778;2023-03-31T09:47:05;12.85;;;2.15;;
11305;SDS011;5708;50.660;6.778;2023-03-31T09:49:33;11.68;;;2.25;;
11305;SDS011;5708;50.660;6.778;2023-03-31T09:52:00;7.90;;;2.00;;
11305;SDS011;5708;50.660;6.778;2023-03-31T09:54:37;8.30;;;1.63;;
11305;SDS011;5708;50.660;6.778;2023-03-31T09:57:26;10.93;;;2.45;;
11305;SDS011;5708;50.660;6.778;2023-03-31T09:59:49;11.60;;;2.38;;
11305;SDS011;5708;50.660;6.778;2023-03-31T10:02:25;10.80;;;2.75;;
11305;SDS011;5708;50.660;6.778;2023-03-31T10:04:53;7.07;;;1.60;;
11305;SDS011;5708;50.660;6.778;2023-03-31T10:07:22;10.15;;;2.05;;
11305;SDS011;5708;50.660;6.778;2023-03-31T10:09:47;7.60;;;1.83;;
11305;SDS011;5708;50.660;6.778;2023-03-31T10:12:16;6.78;;;1.60;;
11305;SDS011;5708;50.660;6.778;2023-03-31T10:14:47;11.05;;;2.03;;
11305;SDS011;5708;50.660;6.778;2023-03-31T10:17:23;14.63;;;2.30;;
11305;SDS011;5708;50.660;6.778;2023-03-31T10:19:53;8.05;;;1.80;;
11305;SDS011;5708;50.660;6.778;2023-03-31T10:24:47;9.10;;;1.80;;
11305;SDS011;5708;50.660;6.778;2023-03-31T10:29:50;10.18;;;1.98;;
11305;SDS011;5708;50.660;6.778;2023-03-31T10:32:49;8.50;;;1.85;;
11305;SDS011;5708;50.660;6.778;2023-03-31T10:35:20;7.50;;;1.77;;
11305;SDS011;5708;50.660;6.778;2023-03-31T10:37:47;9.60;;;2.20;;
11305;SDS011;5708;50.660;6.778;2023-03-31T10:40:13;8.95;;;1.63;;
11305;SDS011;5708;50.660;6.778;2023-03-31T10:42:39;10.13;;;1.63;;
11305;SDS011;5708;50.660;6.778;2023-03-31T10:47:51;12.55;;;2.05;;
11305;SDS011;5708;50.660;6.778;2023-03-31T10:50:17;8.90;;;1.50;;
11305;SDS011;5708;50.660;6.778;2023-03-31T10:52:46;5.60;;;1.10;;
11305;SDS011;5708;50.660;6.778;2023-03-31T10:55:13;7.00;;;1.35;;
11305;SDS011;5708;50.660;6.778;2023-03-31T11:03:00;7.45;;;1.40;;
11305;SDS011;5708;50.660;6.778;2023-03-31T11:13:02;9.80;;;3.00;;
11305;SDS011;5708;50.660;6.778;2023-03-31T11:18:11;17.02;;;3.40;;
11305;SDS011;5708;50.660;6.778;2023-03-31T11:20:57;14.00;;;3.25;;
11305;SDS011;5708;50.660;6.778;2023-03-31T11:41:38;11.50;;;3.03;;
11305;SDS011;5708;50.660;6.778;2023-03-31T11:44:08;6.25;;;1.27;;
11305;SDS011;5708;50.660;6.778;2023-03-31T11:49:01;3.63;;;0.70;;
11305;SDS011;5708;50.660;6.778;2023-03-31T11:51:29;4.93;;;1.00;;
11305;SDS011;5708;50.660;6.778;2023-03-31T11:53:57;4.47;;;1.02;;
11305;SDS011;5708;50.660;6.778;2023-03-31T11:56:24;4.57;;;0.77;;
11305;SDS011;5708;50.660;6.778;2023-03-31T11:58:53;2.65;;;0.60;;
11305;SDS011;5708;50.660;6.778;2023-03-31T12:04:05;6.15;;;0.75;;
11305;SDS011;5708;50.660;6.778;2023-03-31T12:06:34;5.38;;;0.95;;
11305;SDS011;5708;50.660;6.778;2023-03-31T12:16:45;6.75;;;1.05;;
11305;SDS011;5708;50.660;6.778;2023-03-31T12:19:24;5.45;;;1.40;;
11305;SDS011;5708;50.660;6.778;2023-03-31T12:21:55;7.10;;;1.60;;
11305;SDS011;5708;50.660;6.778;2023-03-31T12:24:25;8.52;;;1.83;;
11305;SDS011;5708;50.660;6.778;2023-03-31T12:27:02;6.60;;;1.48;;
11305;SDS011;5708;50.660;6.778;2023-03-31T12:31:55;8.88;;;1.90;;
11305;SDS011;5708;50.660;6.778;2023-03-31T12:34:21;9.35;;;2.05;;
11305;SDS011;5708;50.660;6.778;2023-03-31T12:47:44;8.80;;;1.77;;
11305;SDS011;5708;50.660;6.778;2023-03-31T12:57:57;8.40;;;1.80;;
11305;SDS011;5708;50.660;6.778;2023-03-31T13:00:38;6.68;;;1.50;;
11305;SDS011;5708;50.660;6.778;2023-03-31T13:05:57;5.38;;;1.23;;
11305;SDS011;5708;50.660;6.778;2023-03-31T13:11:07;5.90;;;1.33;;
11305;SDS011;5708;50.660;6.778;2023-03-31T13:13:32;7.45;;;1.35;;
11305;SDS011;5708;50.660;6.778;2023-03-31T13:15:57;6.55;;;1.20;;
11305;SDS011;5708;50.660;6.778;2023-03-31T13:18:25;8.10;;;2.28;;
11305;SDS011;5708;50.660;6.778;2023-03-31T13:21:01;7.32;;;1.50;;
11305;SDS011;5708;50.660;6.778;2023-03-31T13:23:28;6.22;;;1.60;;
11305;SDS011;5708;50.660;6.778;2023-03-31T13:25:55;7.90;;;2.28;;
11305;SDS011;5708;50.660;6.778;2023-03-31T13:33:34;8.48;;;1.33;;
11305;SDS011;5708;50.660;6.778;2023-03-31T13:43:47;5.30;;;1.75;;
11305;SDS011;5708;50.660;6.778;2023-03-31T13:49:09;7.38;;;1.23;;
11305;SDS011;5708;50.660;6.778;2023-03-31T13:51:48;8.88;;;1.58;;
11305;SDS011;5708;50.660;6.778;2023-03-31T14:04:57;7.03;;;1.42;;
11305;SDS011;5708;50.660;6.778;2023-03-31T14:07:36;7.13;;;1.40;;
11305;SDS011;5708;50.660;6.778;2023-03-31T14:10:02;6.60;;;1.45;;
11305;SDS011;5708;50.660;6.778;2023-03-31T14:12:35;8.32;;;1.42;;
11305;SDS011;5708;50.660;6.778;2023-03-31T14:15:01;4.97;;;1.15;;
11305;SDS011;5708;50.660;6.778;2023-03-31T14:17:32;6.22;;;1.02;;
11305;SDS011;5708;50.660;6.778;2023-03-31T14:38:45;5.53;;;1.55;;
11305;SDS011;5708;50.660;6.778;2023-03-31T14:41:17;6.25;;;1.30;;
11305;SDS011;5708;50.660;6.778;2023-03-31T14:43:46;7.72;;;1.85;;
11305;SDS011;5708;50.660;6.778;2023-03-31T14:46:12;6.25;;;1.45;;
11305;SDS011;5708;50.660;6.778;2023-03-31T14:48:44;6.18;;;1.38;;
11305;SDS011;5708;50.660;6.778;2023-03-31T14:51:10;6.88;;;1.50;;
11305;SDS011;5708;50.660;6.778;2023-03-31T14:53:35;6.53;;;1.63;;
11305;SDS011;5708;50.660;6.778;2023-03-31T14:56:04;6.03;;;1.27;;
11305;SDS011;5708;50.660;6.778;2023-03-31T14:58:38;6.82;;;1.52;;
11305;SDS011;5708;50.660;6.778;2023-03-31T15:01:05;7.85;;;1.70;;
11305;SDS011;5708;50.660;6.778;2023-03-31T15:03:32;5.93;;;1.60;;
11305;SDS011;5708;50.660;6.778;2023-03-31T15:05:57;5.85;;;1.20;;
11305;SDS011;5708;50.660;6.778;2023-03-31T15:08:23;7.57;;;1.30;;
11305;SDS011;5708;50.660;6.778;2023-03-31T15:10:50;8.68;;;1.85;;
11305;SDS011;5708;50.660;6.778;2023-03-31T15:13:18;6.45;;;1.45;;
11305;SDS011;5708;50.660;6.778;2023-03-31T15:15:44;6.05;;;1.38;;
11305;SDS011;5708;50.660;6.778;2023-03-31T15:18:11;7.03;;;1.27;;
11305;SDS011;5708;50.660;6.778;2023-03-31T15:20:37;7.53;;;1.70;;
11305;SDS011;5708;50.660;6.778;2023-03-31T15:23:17;7.45;;;2.03;;
11305;SDS011;5708;50.660;6.778;2023-03-31T15:25:46;7.38;;;1.90;;
11305;SDS011;5708;50.660;6.778;2023-03-31T15:28:12;7.53;;;1.77;;
11305;SDS011;5708;50.660;6.778;2023-03-31T15:30:38;6.18;;;1.52;;
11305;SDS011;5708;50.660;6.778;2023-03-31T15:33:07;9.10;;;2.03;;
11305;SDS011;5708;50.660;6.778;2023-03-31T15:35:33;5.97;;;1.45;;
11305;SDS011;5708;50.660;6.778;2023-03-31T15:38:00;4.32;;;1.00;;
11305;SDS011;5708;50.660;6.778;2023-03-31T15:40:27;4.88;;;1.00;;
11305;SDS011;5708;50.660;6.778;2023-03-31T15:42:57;6.55;;;1.23;;
11305;SDS011;5708;50.660;6.778;2023-03-31T15:47:54;3.78;;;1.23;;
11305;SDS011;5708;50.660;6.778;2023-03-31T15:50:21;6.90;;;1.20;;
11305;SDS011;5708;50.660;6.778;2023-03-31T15:52:48;6.10;;;1.58;;
11305;SDS011;5708;50.660;6.778;2023-03-31T15:55:59;5.43;;;1.40;;
11305;SDS011;5708;50.660;6.778;2023-03-31T15:57:59;4.25;;;1.27;;
11305;SDS011;5708;50.660;6.778;2023-03-31T16:03:28;4.10;;;1.25;;
11305;SDS011;5708;50.660;6.778;2023-03-31T16:06:00;4.22;;;0.90;;
11305;SDS011;5708;50.660;6.778;2023-03-31T16:08:31;5.45;;;0.82;;
11305;SDS011;5708;50.660;6.778;2023-03-31T16:11:02;3.72;;;1.20;;
11305;SDS011;5708;50.660;6.778;2023-03-31T16:13:28;5.25;;;1.15;;
11305;SDS011;5708;50.660;6.778;2023-03-31T16:15:54;3.67;;;0.90;;
11305;SDS011;5708;50.660;6.778;2023-03-31T16:20:55;4.07;;;1.40;;
11305;SDS011;5708;50.660;6.778;2023-03-31T16:23:22;4.68;;;1.70;;
11305;SDS011;5708;50.660;6.778;2023-03-31T16:25:49;8.43;;;3.60;;
11305;SDS011;5708;50.660;6.778;2023-03-31T16:28:30;9.55;;;4.00;;
11305;SDS011;5708;50.660;6.778;2023-03-31T16:30:56;4.97;;;1.08;;
11305;SDS011;5708;50.660;6.778;2023-03-31T16:33:25;5.68;;;1.13;;
11305;SDS011;5708;50.660;6.778;2023-03-31T16:35:52;2.75;;;0.90;;
11305;SDS011;5708;50.660;6.778;2023-03-31T16:38:20;6.03;;;2.33;;
11305;SDS011;5708;50.660;6.778;2023-03-31T16:40:47;10.63;;;1.63;;
11305;SDS011;5708;50.660;6.778;2023-03-31T16:45:38;9.52;;;2.20;;
11305;SDS011;5708;50.660;6.778;2023-03-31T16:48:04;4.72;;;1.52;;
11305;SDS011;5708;50.660;6.778;2023-03-31T16:50:29;4.72;;;1.23;;
11305;SDS011;5708;50.660;6.778;2023-03-31T16:52:55;5.85;;;1.05;;
11305;SDS011;5708;50.660;6.778;2023-03-31T16:55:20;6.13;;;1.30;;
11305;SDS011;5708;50.660;6.778;2023-03-31T16:57:46;5.47;;;1.10;;
11305;SDS011;5708;50.660;6.778;2023-03-31T17:00:12;4.35;;;1.20;;
11305;SDS011;5708;50.660;6.778;2023-03-31T17:02:37;4.30;;;1.00;;
11305;SDS011;5708;50.660;6.778;2023-03-31T17:05:03;6.67;;;2.10;;
11305;SDS011;5708;50.660;6.778;2023-03-31T17:07:28;6.88;;;1.23;;
11305;SDS011;5708;50.660;6.778;2023-03-31T17:09:54;5.68;;;1.48;;
11305;SDS011;5708;50.660;6.778;2023-03-31T17:12:19;6.72;;;1.90;;
11305;SDS011;5708;50.660;6.778;2023-03-31T17:14:44;6.10;;;1.52;;
11305;SDS011;5708;50.660;6.778;2023-03-31T17:17:10;6.17;;;1.33;;
11305;SDS011;5708;50.660;6.778;2023-03-31T17:19:35;4.00;;;0.87;;
11305;SDS011;5708;50.660;6.778;2023-03-31T17:22:00;5.47;;;0.80;;
11305;SDS011;5708;50.660;6.778;2023-03-31T17:24:27;5.95;;;1.30;;
11305;SDS011;5708;50.660;6.778;2023-03-31T17:26:52;6.17;;;1.73;;
11305;SDS011;5708;50.660;6.778;2023-03-31T17:29:17;3.97;;;0.90;;
11305;SDS011;5708;50.660;6.778;2023-03-31T17:31:43;3.77;;;1.03;;
11305;SDS011;5708;50.660;6.778;2023-03-31T17:34:08;4.72;;;1.58;;
11305;SDS011;5708;50.660;6.778;2023-03-31T17:36:34;5.93;;;1.27;;
11305;SDS011;5708;50.660;6.778;2023-03-31T17:38:59;4.43;;;1.30;;
11305;SDS011;5708;50.660;6.778;2023-03-31T17:41:25;5.50;;;1.20;;
11305;SDS011;5708;50.660;6.778;2023-03-31T17:43:51;5.75;;;1.92;;
11305;SDS011;5708;50.660;6.778;2023-03-31T17:46:16;4.73;;;1.40;;
11305;SDS011;5708;50.660;6.778;2023-03-31T17:48:42;3.05;;;0.88;;
11305;SDS011;5708;50.660;6.778;2023-03-31T17:51:18;3.38;;;0.80;;
11305;SDS011;5708;50.660;6.778;2023-03-31T17:53:44;4.18;;;0.70;;
11305;SDS011;5708;50.660;6.778;2023-03-31T17:56:10;8.32;;;1.60;;
11305;SDS011;5708;50.660;6.778;2023-03-31T17:58:36;6.63;;;1.63;;
11305;SDS011;5708;50.660;6.778;2023-03-31T18:01:05;5.68;;;1.35;;
11305;SDS011;5708;50.660;6.778;2023-03-31T18:03:32;4.20;;;1.10;;
11305;SDS011;5708;50.660;6.778;2023-03-31T18:06:01;4.57;;;0.80;;
11305;SDS011;5708;50.660;6.778;2023-03-31T18:08:28;6.70;;;1.40;;
11305;SDS011;5708;50.660;6.778;2023-03-31T18:10:53;5.55;;;0.90;;
11305;SDS011;5708;50.660;6.778;2023-03-31T18:13:18;3.10;;;0.90;;
11305;SDS011;5708;50.660;6.778;2023-03-31T18:15:47;7.10;;;1.10;;
11305;SDS011;5708;50.660;6.778;2023-03-31T18:18:15;4.10;;;1.10;;
11305;SDS011;5708;50.660;6.778;2023-03-31T18:20:40;7.80;;;1.50;;
11305;SDS011;5708;50.660;6.778;2023-03-31T18:23:06;7.00;;;1.00;;